sensor_id;sensor_type;location;lat;lon;timestamp;P1;durP1;ratioP1;P2;durP2;ratioP2
15106;SDS011;7654;45.308;-75.096;2022-10-16T00:01:27;0.33;;;0.33;;
15106;SDS011;7654;45.308;-75.096;2022-10-16T00:04:00;0.30;;;0.30;;
15106;SDS011;7654;45.308;-75.096;2022-10-16T00:06:31;0.37;;;0.37;;
15106;SDS011;7654;45.308;-75.096;2022-10-16T00:09:03;0.30;;;0.30;;
15106;SDS011;7654;45.308;-75.096;2022-10-16T00:11:34;0.30;;;0.30;;
15106;SDS011;7654;45.308;-75.096;2022-10-16T00:14:08;0.30;;;0.30;;
15106;SDS011;7654;45.308;-75.096;2022-10-16T00:16:41;0.30;;;0.30;;
15106;SDS011;7654;45.308;-75.096;2022-10-16T00:19:12;0.30;;;0.30;;
15106;SDS011;7654;45.308;-75.096;2022-10-16T00:21:42;0.37;;;0.37;;
15106;SDS011;7654;45.308;-75.096;2022-10-16T00:24:13;0.30;;;0.30;;
15106;SDS011;7654;45.308;-75.096;2022-10-16T00:26:43;0.30;;;0.30;;
15106;SDS011;7654;45.308;-75.096;2022-10-16T00:29:13;0.30;;;0.30;;
15106;SDS011;7654;45.308;-75.096;2022-10-16T00:31:45;0.30;;;0.30;;
15106;SDS011;7654;45.308;-75.096;2022-10-16T00:34:16;0.33;;;0.33;;
15106;SDS011;7654;45.308;-75.096;2022-10-16T00:36:46;0.30;;;0.30;;
15106;SDS011;7654;45.308;-75.096;2022-10-16T00:39:16;0.30;;;0.30;;
15106;SDS011;7654;45.308;-75.096;2022-10-16T00:41:47;0.30;;;0.30;;
15106;SDS011;7654;45.308;-75.096;2022-10-16T00:47:15;0.30;;;0.30;;
15106;SDS011;7654;45.308;-75.096;2022-10-16T00:49:51;0.30;;;0.30;;
15106;SDS011;7654;45.308;-75.096;2022-10-16T00:52:28;0.30;;;0.30;;
15106;SDS011;7654;45.308;-75.096;2022-10-16T00:54:59;0.40;;;0.40;;
15106;SDS011;7654;45.308;-75.096;2022-10-16T00:57:31;0.30;;;0.30;;
15106;SDS011;7654;45.308;-75.096;2022-10-16T01:00:03;0.40;;;0.40;;
15106;SDS011;7654;45.308;-75.096;2022-10-16T01:02:36;0.30;;;0.30;;
15106;SDS011;7654;45.308;-75.096;2022-10-16T01:05:07;0.30;;;0.30;;
15106;SDS011;7654;45.308;-75.096;2022-10-16T01:07:41;0.30;;;0.30;;
15106;SDS011;7654;45.308;-75.096;2022-10-16T01:10:24;0.40;;;0.40;;
15106;SDS011;7654;45.308;-75.096;2022-10-16T01:13:01;0.40;;;0.40;;
15106;SDS011;7654;45.308;-75.096;2022-10-16T01:15:36;0.40;;;0.40;;
15106;SDS011;7654;45.308;-75.096;2022-10-16T01:18:13;0.37;;;0.37;;
15106;SDS011;7654;45.308;-75.096;2022-10-16T01:20:49;0.40;;;0.40;;
15106;SDS011;7654;45.308;-75.096;2022-10-16T01:23:27;0.30;;;0.30;;
15106;SDS011;7654;45.308;-75.096;2022-10-16T01:29:07;0.30;;;0.30;;
15106;SDS011;7654;45.308;-75.096;2022-10-16T01:31:45;0.40;;;0.40;;
15106;SDS011;7654;45.308;-75.096;2022-10-16T01:34:22;0.30;;;0.30;;
15106;SDS011;7654;45.308;-75.096;2022-10-16T01:36:59;0.30;;;0.30;;
15106;SDS011;7654;45.308;-75.096;2022-10-16T01:39:37;0.30;;;0.30;;
15106;SDS011;7654;45.308;-75.096;2022-10-16T01:42:12;0.30;;;0.30;;
15106;SDS011;7654;45.308;-75.096;2022-10-16T01:44:50;0.40;;;0.40;;
15106;SDS011;7654;45.308;-75.096;2022-10-16T01:47:22;0.40;;;0.40;;
15106;SDS011;7654;45.308;-75.096;2022-10-16T01:49:55;0.40;;;0.40;;
15106;SDS011;7654;45.308;-75.096;2022-10-16T01:52:28;0.30;;;0.30;;
15106;SDS011;7654;45.308;-75.096;2022-10-16T01:54:58;0.40;;;0.40;;
15106;SDS011;7654;45.308;-75.096;2022-10-16T01:57:31;0.40;;;0.40;;
15106;SDS011;7654;45.308;-75.096;2022-10-16T02:00:05;0.33;;;0.33;;
15106;SDS011;7654;45.308;-75.096;2022-10-16T02:02:39;0.40;;;0.40;;
15106;SDS011;7654;45.308;-75.096;2022-10-16T02:05:13;0.40;;;0.40;;
15106;SDS011;7654;45.308;-75.096;2022-10-16T02:07:49;0.40;;;0.40;;
15106;SDS011;7654;45.308;-75.096;2022-10-16T02:10:19;0.40;;;0.40;;
15106;SDS011;7654;45.308;-75.096;2022-10-16T02:12:53;0.40;;;0.40;;
15106;SDS011;7654;45.308;-75.096;2022-10-16T02:15:29;0.43;;;0.43;;
15106;SDS011;7654;45.308;-75.096;2022-10-16T02:18:00;0.40;;;0.40;;
15106;SDS011;7654;45.308;-75.096;2022-10-16T02:20:32;0.40;;;0.40;;
15106;SDS011;7654;45.308;-75.096;2022-10-16T02:23:07;0.40;;;0.40;;
15106;SDS011;7654;45.308;-75.096;2022-10-16T02:25:44;0.40;;;0.40;;
15106;SDS011;7654;45.308;-75.096;2022-10-16T02:28:16;0.40;;;0.40;;
15106;SDS011;7654;45.308;-75.096;2022-10-16T02:30:54;0.40;;;0.40;;
15106;SDS011;7654;45.308;-75.096;2022-10-16T02:33:27;0.40;;;0.40;;
15106;SDS011;7654;45.308;-75.096;2022-10-16T02:36:00;0.30;;;0.30;;
15106;SDS011;7654;45.308;-75.096;2022-10-16T02:38:31;0.30;;;0.30;;
15106;SDS011;7654;45.308;-75.096;2022-10-16T02:41:03;0.40;;;0.40;;
15106;SDS011;7654;45.308;-75.096;2022-10-16T02:43:33;0.50;;;0.50;;
15106;SDS011;7654;45.308;-75.096;2022-10-16T02:46:05;0.40;;;0.40;;
15106;SDS011;7654;45.308;-75.096;2022-10-16T02:48:36;0.47;;;0.47;;
15106;SDS011;7654;45.308;-75.096;2022-10-16T02:51:06;0.40;;;0.40;;
15106;SDS011;7654;45.308;-75.096;2022-10-16T02:53:36;0.40;;;0.40;;
15106;SDS011;7654;45.308;-75.096;2022-10-16T02:56:07;0.40;;;0.40;;
15106;SDS011;7654;45.308;-75.096;2022-10-16T02:58:37;0.40;;;0.40;;
15106;SDS011;7654;45.308;-75.096;2022-10-16T03:01:09;0.40;;;0.40;;
15106;SDS011;7654;45.308;-75.096;2022-10-16T03:03:41;0.30;;;0.30;;
15106;SDS011;7654;45.308;-75.096;2022-10-16T03:06:12;0.40;;;0.40;;
15106;SDS011;7654;45.308;-75.096;2022-10-16T03:08:42;0.50;;;0.50;;
15106;SDS011;7654;45.308;-75.096;2022-10-16T03:11:12;0.40;;;0.40;;
15106;SDS011;7654;45.308;-75.096;2022-10-16T03:13:42;0.30;;;0.30;;
15106;SDS011;7654;45.308;-75.096;2022-10-16T03:16:14;0.40;;;0.40;;
15106;SDS011;7654;45.308;-75.096;2022-10-16T03:18:47;0.50;;;0.50;;
15106;SDS011;7654;45.308;-75.096;2022-10-16T03:21:18;0.40;;;0.40;;
15106;SDS011;7654;45.308;-75.096;2022-10-16T03:23:49;0.30;;;0.30;;
15106;SDS011;7654;45.308;-75.096;2022-10-16T03:26:19;0.40;;;0.40;;
15106;SDS011;7654;45.308;-75.096;2022-10-16T03:28:49;0.50;;;0.50;;
15106;SDS011;7654;45.308;-75.096;2022-10-16T03:31:21;0.40;;;0.40;;
15106;SDS011;7654;45.308;-75.096;2022-10-16T03:33:52;0.40;;;0.40;;
15106;SDS011;7654;45.308;-75.096;2022-10-16T03:36:22;0.40;;;0.40;;
15106;SDS011;7654;45.308;-75.096;2022-10-16T03:38:52;0.40;;;0.40;;
15106;SDS011;7654;45.308;-75.096;2022-10-16T03:41:23;0.50;;;0.50;;
15106;SDS011;7654;45.308;-75.096;2022-10-16T03:43:53;0.40;;;0.40;;
15106;SDS011;7654;45.308;-75.096;2022-10-16T03:46:25;0.40;;;0.40;;
15106;SDS011;7654;45.308;-75.096;2022-10-16T03:48:55;0.40;;;0.40;;
15106;SDS011;7654;45.308;-75.096;2022-10-16T03:51:25;0.40;;;0.40;;
15106;SDS011;7654;45.308;-75.096;2022-10-16T03:53:56;0.40;;;0.40;;
15106;SDS011;7654;45.308;-75.096;2022-10-16T03:56:26;0.50;;;0.50;;
15106;SDS011;7654;45.308;-75.096;2022-10-16T03:58:56;0.40;;;0.40;;
15106;SDS011;7654;45.308;-75.096;2022-10-16T04:01:28;0.40;;;0.40;;
15106;SDS011;7654;45.308;-75.096;2022-10-16T04:03:59;0.40;;;0.40;;
15106;SDS011;7654;45.308;-75.096;2022-10-16T04:06:29;0.40;;;0.40;;
15106;SDS011;7654;45.308;-75.096;2022-10-16T04:09:00;0.40;;;0.40;;
15106;SDS011;7654;45.308;-75.096;2022-10-16T04:11:30;0.50;;;0.50;;
15106;SDS011;7654;45.308;-75.096;2022-10-16T04:14:00;0.40;;;0.40;;
15106;SDS011;7654;45.308;-75.096;2022-10-16T04:16:32;0.50;;;0.50;;
15106;SDS011;7654;45.308;-75.096;2022-10-16T04:20:55;0.40;;;0.40;;
15106;SDS011;7654;45.308;-75.096;2022-10-16T04:23:26;0.40;;;0.40;;
15106;SDS011;7654;45.308;-75.096;2022-10-16T04:25:56;0.40;;;0.40;;
15106;SDS011;7654;45.308;-75.096;2022-10-16T04:28:27;0.40;;;0.40;;
15106;SDS011;7654;45.308;-75.096;2022-10-16T04:30:57;0.40;;;0.40;;
15106;SDS011;7654;45.308;-75.096;2022-10-16T04:33:28;0.40;;;0.40;;
15106;SDS011;7654;45.308;-75.096;2022-10-16T04:36:00;0.40;;;0.40;;
15106;SDS011;7654;45.308;-75.096;2022-10-16T04:38:33;0.50;;;0.50;;
15106;SDS011;7654;45.308;-75.096;2022-10-16T04:41:04;0.50;;;0.50;;
15106;SDS011;7654;45.308;-75.096;2022-10-16T04:43:35;0.40;;;0.40;;
15106;SDS011;7654;45.308;-75.096;2022-10-16T04:46:06;0.30;;;0.30;;
15106;SDS011;7654;45.308;-75.096;2022-10-16T04:48:37;0.40;;;0.40;;
15106;SDS011;7654;45.308;-75.096;2022-10-16T04:51:10;0.40;;;0.40;;
15106;SDS011;7654;45.308;-75.096;2022-10-16T04:53:41;0.37;;;0.37;;
15106;SDS011;7654;45.308;-75.096;2022-10-16T04:56:11;0.50;;;0.50;;
15106;SDS011;7654;45.308;-75.096;2022-10-16T04:58:42;0.40;;;0.40;;
15106;SDS011;7654;45.308;-75.096;2022-10-16T05:01:13;0.50;;;0.50;;
15106;SDS011;7654;45.308;-75.096;2022-10-16T05:03:44;0.40;;;0.40;;
15106;SDS011;7654;45.308;-75.096;2022-10-16T05:06:16;0.60;;;0.60;;
15106;SDS011;7654;45.308;-75.096;2022-10-16T05:08:46;0.40;;;0.40;;
15106;SDS011;7654;45.308;-75.096;2022-10-16T05:11:17;0.40;;;0.40;;
15106;SDS011;7654;45.308;-75.096;2022-10-16T05:13:47;0.40;;;0.40;;
15106;SDS011;7654;45.308;-75.096;2022-10-16T05:16:21;0.40;;;0.40;;
15106;SDS011;7654;45.308;-75.096;2022-10-16T05:18:52;0.50;;;0.50;;
15106;SDS011;7654;45.308;-75.096;2022-10-16T05:21:44;0.47;;;0.47;;
15106;SDS011;7654;45.308;-75.096;2022-10-16T05:24:15;0.50;;;0.50;;
15106;SDS011;7654;45.308;-75.096;2022-10-16T05:26:45;0.50;;;0.50;;
15106;SDS011;7654;45.308;-75.096;2022-10-16T05:30:25;0.50;;;0.50;;
15106;SDS011;7654;45.308;-75.096;2022-10-16T05:32:55;0.40;;;0.40;;
15106;SDS011;7654;45.308;-75.096;2022-10-16T05:35:26;0.50;;;0.50;;
15106;SDS011;7654;45.308;-75.096;2022-10-16T05:37:56;0.50;;;0.50;;
15106;SDS011;7654;45.308;-75.096;2022-10-16T05:40:26;0.50;;;0.50;;
15106;SDS011;7654;45.308;-75.096;2022-10-16T05:42:57;0.50;;;0.50;;
15106;SDS011;7654;45.308;-75.096;2022-10-16T05:45:29;0.53;;;0.53;;
15106;SDS011;7654;45.308;-75.096;2022-10-16T05:47:59;0.60;;;0.60;;
15106;SDS011;7654;45.308;-75.096;2022-10-16T05:50:30;0.43;;;0.43;;
15106;SDS011;7654;45.308;-75.096;2022-10-16T05:53:00;0.50;;;0.50;;
15106;SDS011;7654;45.308;-75.096;2022-10-16T05:55:31;0.50;;;0.50;;
15106;SDS011;7654;45.308;-75.096;2022-10-16T05:58:01;0.50;;;0.50;;
15106;SDS011;7654;45.308;-75.096;2022-10-16T06:00:33;0.53;;;0.53;;
15106;SDS011;7654;45.308;-75.096;2022-10-16T06:03:03;0.50;;;0.50;;
15106;SDS011;7654;45.308;-75.096;2022-10-16T06:05:34;0.50;;;0.50;;
15106;SDS011;7654;45.308;-75.096;2022-10-16T06:08:04;0.50;;;0.50;;
15106;SDS011;7654;45.308;-75.096;2022-10-16T06:10:35;0.60;;;0.60;;
15106;SDS011;7654;45.308;-75.096;2022-10-16T06:13:06;0.43;;;0.43;;
15106;SDS011;7654;45.308;-75.096;2022-10-16T06:15:38;0.60;;;0.60;;
15106;SDS011;7654;45.308;-75.096;2022-10-16T06:18:10;0.50;;;0.50;;
15106;SDS011;7654;45.308;-75.096;2022-10-16T06:20:40;0.60;;;0.60;;
15106;SDS011;7654;45.308;-75.096;2022-10-16T06:23:11;0.57;;;0.57;;
15106;SDS011;7654;45.308;-75.096;2022-10-16T06:25:41;0.60;;;0.60;;
15106;SDS011;7654;45.308;-75.096;2022-10-16T06:28:13;0.60;;;0.60;;
15106;SDS011;7654;45.308;-75.096;2022-10-16T06:30:46;0.50;;;0.50;;
15106;SDS011;7654;45.308;-75.096;2022-10-16T06:33:16;0.60;;;0.60;;
15106;SDS011;7654;45.308;-75.096;2022-10-16T06:35:46;0.60;;;0.60;;
15106;SDS011;7654;45.308;-75.096;2022-10-16T06:38:17;0.60;;;0.60;;
15106;SDS011;7654;45.308;-75.096;2022-10-16T06:40:47;0.60;;;0.60;;
15106;SDS011;7654;45.308;-75.096;2022-10-16T06:43:18;0.50;;;0.50;;
15106;SDS011;7654;45.308;-75.096;2022-10-16T06:45:52;0.60;;;0.60;;
15106;SDS011;7654;45.308;-75.096;2022-10-16T06:48:23;0.60;;;0.60;;
15106;SDS011;7654;45.308;-75.096;2022-10-16T06:50:57;0.50;;;0.50;;
15106;SDS011;7654;45.308;-75.096;2022-10-16T06:53:31;0.60;;;0.60;;
15106;SDS011;7654;45.308;-75.096;2022-10-16T06:56:15;0.60;;;0.60;;
15106;SDS011;7654;45.308;-75.096;2022-10-16T06:58:46;0.50;;;0.50;;
15106;SDS011;7654;45.308;-75.096;2022-10-16T07:01:20;0.50;;;0.50;;
15106;SDS011;7654;45.308;-75.096;2022-10-16T07:03:51;0.50;;;0.50;;
15106;SDS011;7654;45.308;-75.096;2022-10-16T07:06:23;0.60;;;0.60;;
15106;SDS011;7654;45.308;-75.096;2022-10-16T07:08:54;0.60;;;0.60;;
15106;SDS011;7654;45.308;-75.096;2022-10-16T07:11:25;0.50;;;0.50;;
15106;SDS011;7654;45.308;-75.096;2022-10-16T07:13:55;0.50;;;0.50;;
15106;SDS011;7654;45.308;-75.096;2022-10-16T07:16:28;0.50;;;0.50;;
15106;SDS011;7654;45.308;-75.096;2022-10-16T07:19:00;0.50;;;0.50;;
15106;SDS011;7654;45.308;-75.096;2022-10-16T07:21:31;0.50;;;0.50;;
15106;SDS011;7654;45.308;-75.096;2022-10-16T07:24:04;0.53;;;0.53;;
15106;SDS011;7654;45.308;-75.096;2022-10-16T07:26:36;0.50;;;0.50;;
15106;SDS011;7654;45.308;-75.096;2022-10-16T07:29:11;0.50;;;0.50;;
15106;SDS011;7654;45.308;-75.096;2022-10-16T07:31:44;0.60;;;0.60;;
15106;SDS011;7654;45.308;-75.096;2022-10-16T07:34:16;0.50;;;0.50;;
15106;SDS011;7654;45.308;-75.096;2022-10-16T07:36:49;0.60;;;0.60;;
15106;SDS011;7654;45.308;-75.096;2022-10-16T07:39:20;0.50;;;0.50;;
15106;SDS011;7654;45.308;-75.096;2022-10-16T07:41:51;0.60;;;0.60;;
15106;SDS011;7654;45.308;-75.096;2022-10-16T07:44:21;0.60;;;0.60;;
15106;SDS011;7654;45.308;-75.096;2022-10-16T07:46:53;0.53;;;0.53;;
15106;SDS011;7654;45.308;-75.096;2022-10-16T07:49:23;0.50;;;0.50;;
15106;SDS011;7654;45.308;-75.096;2022-10-16T07:51:54;0.63;;;0.63;;
15106;SDS011;7654;45.308;-75.096;2022-10-16T07:54:24;0.60;;;0.60;;
15106;SDS011;7654;45.308;-75.096;2022-10-16T07:56:55;0.57;;;0.57;;
15106;SDS011;7654;45.308;-75.096;2022-10-16T07:59:25;0.53;;;0.53;;
15106;SDS011;7654;45.308;-75.096;2022-10-16T08:01:57;0.60;;;0.60;;
15106;SDS011;7654;45.308;-75.096;2022-10-16T08:04:27;0.50;;;0.50;;
15106;SDS011;7654;45.308;-75.096;2022-10-16T08:06:58;0.60;;;0.60;;
15106;SDS011;7654;45.308;-75.096;2022-10-16T08:09:28;0.70;;;0.70;;
15106;SDS011;7654;45.308;-75.096;2022-10-16T08:11:59;0.60;;;0.60;;
15106;SDS011;7654;45.308;-75.096;2022-10-16T08:14:30;0.60;;;0.60;;
15106;SDS011;7654;45.308;-75.096;2022-10-16T08:17:02;0.60;;;0.60;;
15106;SDS011;7654;45.308;-75.096;2022-10-16T08:19:32;0.60;;;0.60;;
15106;SDS011;7654;45.308;-75.096;2022-10-16T08:22:03;0.60;;;0.60;;
15106;SDS011;7654;45.308;-75.096;2022-10-16T08:24:34;0.60;;;0.60;;
15106;SDS011;7654;45.308;-75.096;2022-10-16T08:27:05;0.60;;;0.60;;
15106;SDS011;7654;45.308;-75.096;2022-10-16T08:29:36;0.60;;;0.60;;
15106;SDS011;7654;45.308;-75.096;2022-10-16T08:32:09;0.70;;;0.70;;
15106;SDS011;7654;45.308;-75.096;2022-10-16T08:34:39;0.50;;;0.50;;
15106;SDS011;7654;45.308;-75.096;2022-10-16T08:37:10;0.70;;;0.70;;
15106;SDS011;7654;45.308;-75.096;2022-10-16T08:39:41;0.60;;;0.60;;
15106;SDS011;7654;45.308;-75.096;2022-10-16T08:42:15;0.60;;;0.60;;
15106;SDS011;7654;45.308;-75.096;2022-10-16T08:45:13;0.50;;;0.50;;
15106;SDS011;7654;45.308;-75.096;2022-10-16T08:48:03;0.53;;;0.53;;
15106;SDS011;7654;45.308;-75.096;2022-10-16T08:50:40;0.57;;;0.57;;
15106;SDS011;7654;45.308;-75.096;2022-10-16T08:53:13;0.60;;;0.60;;
15106;SDS011;7654;45.308;-75.096;2022-10-16T08:55:49;0.60;;;0.60;;
15106;SDS011;7654;45.308;-75.096;2022-10-16T08:58:21;0.60;;;0.60;;
15106;SDS011;7654;45.308;-75.096;2022-10-16T09:00:56;0.60;;;0.60;;
15106;SDS011;7654;45.308;-75.096;2022-10-16T09:03:36;0.57;;;0.57;;
15106;SDS011;7654;45.308;-75.096;2022-10-16T09:06:26;0.60;;;0.60;;
15106;SDS011;7654;45.308;-75.096;2022-10-16T09:09:08;0.60;;;0.60;;
15106;SDS011;7654;45.308;-75.096;2022-10-16T09:14:40;0.50;;;0.50;;
15106;SDS011;7654;45.308;-75.096;2022-10-16T09:17:41;0.60;;;0.60;;
15106;SDS011;7654;45.308;-75.096;2022-10-16T09:20:23;0.60;;;0.60;;
15106;SDS011;7654;45.308;-75.096;2022-10-16T09:23:08;0.60;;;0.60;;
15106;SDS011;7654;45.308;-75.096;2022-10-16T09:25:45;0.57;;;0.57;;
15106;SDS011;7654;45.308;-75.096;2022-10-16T09:28:17;0.50;;;0.50;;
15106;SDS011;7654;45.308;-75.096;2022-10-16T09:30:50;0.50;;;0.50;;
15106;SDS011;7654;45.308;-75.096;2022-10-16T09:33:22;0.60;;;0.60;;
15106;SDS011;7654;45.308;-75.096;2022-10-16T09:35:56;0.50;;;0.50;;
15106;SDS011;7654;45.308;-75.096;2022-10-16T09:38:28;0.50;;;0.50;;
15106;SDS011;7654;45.308;-75.096;2022-10-16T09:41:00;0.60;;;0.60;;
15106;SDS011;7654;45.308;-75.096;2022-10-16T09:43:33;0.50;;;0.50;;
15106;SDS011;7654;45.308;-75.096;2022-10-16T09:46:19;0.50;;;0.50;;
15106;SDS011;7654;45.308;-75.096;2022-10-16T09:48:53;0.50;;;0.50;;
15106;SDS011;7654;45.308;-75.096;2022-10-16T09:51:27;0.57;;;0.57;;
15106;SDS011;7654;45.308;-75.096;2022-10-16T09:54:00;0.60;;;0.60;;
15106;SDS011;7654;45.308;-75.096;2022-10-16T09:56:33;0.60;;;0.60;;
15106;SDS011;7654;45.308;-75.096;2022-10-16T09:59:10;0.60;;;0.60;;
15106;SDS011;7654;45.308;-75.096;2022-10-16T10:01:44;0.50;;;0.50;;
15106;SDS011;7654;45.308;-75.096;2022-10-16T10:04:16;0.50;;;0.50;;
15106;SDS011;7654;45.308;-75.096;2022-10-16T10:06:47;0.50;;;0.50;;
15106;SDS011;7654;45.308;-75.096;2022-10-16T10:09:21;0.50;;;0.50;;
15106;SDS011;7654;45.308;-75.096;2022-10-16T10:11:53;0.50;;;0.50;;
15106;SDS011;7654;45.308;-75.096;2022-10-16T10:14:30;0.50;;;0.50;;
15106;SDS011;7654;45.308;-75.096;2022-10-16T10:17:12;0.50;;;0.50;;
15106;SDS011;7654;45.308;-75.096;2022-10-16T10:19:47;0.60;;;0.60;;
15106;SDS011;7654;45.308;-75.096;2022-10-16T10:22:30;0.60;;;0.60;;
15106;SDS011;7654;45.308;-75.096;2022-10-16T10:28:24;0.50;;;0.50;;
15106;SDS011;7654;45.308;-75.096;2022-10-16T10:31:20;0.60;;;0.60;;
15106;SDS011;7654;45.308;-75.096;2022-10-16T10:33:58;0.50;;;0.50;;
15106;SDS011;7654;45.308;-75.096;2022-10-16T10:36:40;0.50;;;0.50;;
15106;SDS011;7654;45.308;-75.096;2022-10-16T10:39:13;0.60;;;0.60;;
15106;SDS011;7654;45.308;-75.096;2022-10-16T10:42:09;0.60;;;0.60;;
15106;SDS011;7654;45.308;-75.096;2022-10-16T10:45:02;0.50;;;0.50;;
15106;SDS011;7654;45.308;-75.096;2022-10-16T10:47:53;0.50;;;0.50;;
15106;SDS011;7654;45.308;-75.096;2022-10-16T10:50:38;0.50;;;0.50;;
15106;SDS011;7654;45.308;-75.096;2022-10-16T10:53:17;0.50;;;0.50;;
15106;SDS011;7654;45.308;-75.096;2022-10-16T10:55:54;0.57;;;0.57;;
15106;SDS011;7654;45.308;-75.096;2022-10-16T10:58:45;0.50;;;0.50;;
15106;SDS011;7654;45.308;-75.096;2022-10-16T11:01:35;0.50;;;0.50;;
15106;SDS011;7654;45.308;-75.096;2022-10-16T11:04:27;0.60;;;0.60;;
15106;SDS011;7654;45.308;-75.096;2022-10-16T11:07:22;0.50;;;0.50;;
15106;SDS011;7654;45.308;-75.096;2022-10-16T11:09:57;0.60;;;0.60;;
15106;SDS011;7654;45.308;-75.096;2022-10-16T11:12:31;0.60;;;0.60;;
15106;SDS011;7654;45.308;-75.096;2022-10-16T11:15:11;0.50;;;0.50;;
15106;SDS011;7654;45.308;-75.096;2022-10-16T11:17:44;0.50;;;0.50;;
15106;SDS011;7654;45.308;-75.096;2022-10-16T11:20:22;0.60;;;0.60;;
15106;SDS011;7654;45.308;-75.096;2022-10-16T11:22:57;0.50;;;0.50;;
15106;SDS011;7654;45.308;-75.096;2022-10-16T11:25:31;0.60;;;0.60;;
15106;SDS011;7654;45.308;-75.096;2022-10-16T11:28:03;0.60;;;0.60;;
15106;SDS011;7654;45.308;-75.096;2022-10-16T11:30:41;0.60;;;0.60;;
15106;SDS011;7654;45.308;-75.096;2022-10-16T11:35:44;0.50;;;0.50;;
15106;SDS011;7654;45.308;-75.096;2022-10-16T11:38:21;0.60;;;0.60;;
15106;SDS011;7654;45.308;-75.096;2022-10-16T11:40:59;0.60;;;0.60;;
15106;SDS011;7654;45.308;-75.096;2022-10-16T11:43:34;0.50;;;0.50;;
15106;SDS011;7654;45.308;-75.096;2022-10-16T11:46:08;0.47;;;0.47;;
15106;SDS011;7654;45.308;-75.096;2022-10-16T11:48:43;0.50;;;0.50;;
15106;SDS011;7654;45.308;-75.096;2022-10-16T11:51:21;0.60;;;0.60;;
15106;SDS011;7654;45.308;-75.096;2022-10-16T11:54:02;0.50;;;0.50;;
15106;SDS011;7654;45.308;-75.096;2022-10-16T11:56:39;0.60;;;0.60;;
15106;SDS011;7654;45.308;-75.096;2022-10-16T11:59:14;0.60;;;0.60;;
15106;SDS011;7654;45.308;-75.096;2022-10-16T12:01:53;0.60;;;0.60;;
15106;SDS011;7654;45.308;-75.096;2022-10-16T12:04:48;0.60;;;0.60;;
15106;SDS011;7654;45.308;-75.096;2022-10-16T12:07:27;0.60;;;0.60;;
15106;SDS011;7654;45.308;-75.096;2022-10-16T12:10:10;0.60;;;0.60;;
15106;SDS011;7654;45.308;-75.096;2022-10-16T12:12:53;0.60;;;0.60;;
15106;SDS011;7654;45.308;-75.096;2022-10-16T12:15:24;0.60;;;0.60;;
15106;SDS011;7654;45.308;-75.096;2022-10-16T12:18:20;0.50;;;0.50;;
15106;SDS011;7654;45.308;-75.096;2022-10-16T12:20:56;0.63;;;0.63;;
15106;SDS011;7654;45.308;-75.096;2022-10-16T12:23:36;0.60;;;0.60;;
15106;SDS011;7654;45.308;-75.096;2022-10-16T12:26:08;0.50;;;0.50;;
15106;SDS011;7654;45.308;-75.096;2022-10-16T12:28:39;0.60;;;0.60;;
15106;SDS011;7654;45.308;-75.096;2022-10-16T12:31:10;0.40;;;0.40;;
15106;SDS011;7654;45.308;-75.096;2022-10-16T12:33:41;0.60;;;0.60;;
15106;SDS011;7654;45.308;-75.096;2022-10-16T12:36:26;0.47;;;0.47;;
15106;SDS011;7654;45.308;-75.096;2022-10-16T12:39:00;0.60;;;0.60;;
15106;SDS011;7654;45.308;-75.096;2022-10-16T12:41:32;0.50;;;0.50;;
15106;SDS011;7654;45.308;-75.096;2022-10-16T12:44:20;0.50;;;0.50;;
15106;SDS011;7654;45.308;-75.096;2022-10-16T12:46:53;0.50;;;0.50;;
15106;SDS011;7654;45.308;-75.096;2022-10-16T12:49:29;0.50;;;0.50;;
15106;SDS011;7654;45.308;-75.096;2022-10-16T12:52:01;0.50;;;0.50;;
15106;SDS011;7654;45.308;-75.096;2022-10-16T12:54:36;0.50;;;0.50;;
15106;SDS011;7654;45.308;-75.096;2022-10-16T12:57:12;0.50;;;0.50;;
15106;SDS011;7654;45.308;-75.096;2022-10-16T13:00:04;0.50;;;0.50;;
15106;SDS011;7654;45.308;-75.096;2022-10-16T13:02:49;0.50;;;0.50;;
15106;SDS011;7654;45.308;-75.096;2022-10-16T13:05:34;0.50;;;0.50;;
15106;SDS011;7654;45.308;-75.096;2022-10-16T13:08:26;0.50;;;0.50;;
15106;SDS011;7654;45.308;-75.096;2022-10-16T13:11:27;0.50;;;0.50;;
15106;SDS011;7654;45.308;-75.096;2022-10-16T13:14:10;0.50;;;0.50;;
15106;SDS011;7654;45.308;-75.096;2022-10-16T13:16:54;0.50;;;0.50;;
15106;SDS011;7654;45.308;-75.096;2022-10-16T13:19:33;0.50;;;0.50;;
15106;SDS011;7654;45.308;-75.096;2022-10-16T13:22:14;0.40;;;0.40;;
15106;SDS011;7654;45.308;-75.096;2022-10-16T13:24:53;0.40;;;0.40;;
15106;SDS011;7654;45.308;-75.096;2022-10-16T13:27:39;0.40;;;0.40;;
15106;SDS011;7654;45.308;-75.096;2022-10-16T13:30:16;0.50;;;0.50;;
15106;SDS011;7654;45.308;-75.096;2022-10-16T13:32:59;0.40;;;0.40;;
15106;SDS011;7654;45.308;-75.096;2022-10-16T13:35:31;0.40;;;0.40;;
15106;SDS011;7654;45.308;-75.096;2022-10-16T13:38:09;0.40;;;0.40;;
15106;SDS011;7654;45.308;-75.096;2022-10-16T13:40:49;0.40;;;0.40;;
15106;SDS011;7654;45.308;-75.096;2022-10-16T13:43:23;0.40;;;0.40;;
15106;SDS011;7654;45.308;-75.096;2022-10-16T13:53:36;0.40;;;0.40;;
15106;SDS011;7654;45.308;-75.096;2022-10-16T13:56:10;0.40;;;0.40;;
15106;SDS011;7654;45.308;-75.096;2022-10-16T13:58:44;0.30;;;0.30;;
15106;SDS011;7654;45.308;-75.096;2022-10-16T14:01:15;0.50;;;0.50;;
15106;SDS011;7654;45.308;-75.096;2022-10-16T14:03:50;0.33;;;0.33;;
15106;SDS011;7654;45.308;-75.096;2022-10-16T14:06:21;0.40;;;0.40;;
15106;SDS011;7654;45.308;-75.096;2022-10-16T14:08:53;0.40;;;0.40;;
15106;SDS011;7654;45.308;-75.096;2022-10-16T14:11:28;0.40;;;0.40;;
15106;SDS011;7654;45.308;-75.096;2022-10-16T14:14:01;0.30;;;0.30;;
15106;SDS011;7654;45.308;-75.096;2022-10-16T14:16:32;0.40;;;0.40;;
15106;SDS011;7654;45.308;-75.096;2022-10-16T14:19:03;0.50;;;0.50;;
15106;SDS011;7654;45.308;-75.096;2022-10-16T14:21:36;0.40;;;0.40;;
15106;SDS011;7654;45.308;-75.096;2022-10-16T14:24:12;0.40;;;0.40;;
15106;SDS011;7654;45.308;-75.096;2022-10-16T14:26:51;0.40;;;0.40;;
15106;SDS011;7654;45.308;-75.096;2022-10-16T14:29:26;0.40;;;0.40;;
15106;SDS011;7654;45.308;-75.096;2022-10-16T14:32:02;0.33;;;0.33;;
15106;SDS011;7654;45.308;-75.096;2022-10-16T14:34:53;0.30;;;0.30;;
15106;SDS011;7654;45.308;-75.096;2022-10-16T14:37:24;0.40;;;0.40;;
15106;SDS011;7654;45.308;-75.096;2022-10-16T14:39:57;0.40;;;0.40;;
15106;SDS011;7654;45.308;-75.096;2022-10-16T14:42:29;0.30;;;0.30;;
15106;SDS011;7654;45.308;-75.096;2022-10-16T14:45:01;0.40;;;0.40;;
15106;SDS011;7654;45.308;-75.096;2022-10-16T14:47:45;0.40;;;0.40;;
15106;SDS011;7654;45.308;-75.096;2022-10-16T14:50:19;0.30;;;0.30;;
15106;SDS011;7654;45.308;-75.096;2022-10-16T14:52:50;0.40;;;0.40;;
15106;SDS011;7654;45.308;-75.096;2022-10-16T14:55:20;0.40;;;0.40;;
15106;SDS011;7654;45.308;-75.096;2022-10-16T14:57:51;0.40;;;0.40;;
15106;SDS011;7654;45.308;-75.096;2022-10-16T15:00:28;0.30;;;0.30;;
15106;SDS011;7654;45.308;-75.096;2022-10-16T15:02:59;0.30;;;0.30;;
15106;SDS011;7654;45.308;-75.096;2022-10-16T15:05:31;0.30;;;0.30;;
15106;SDS011;7654;45.308;-75.096;2022-10-16T15:08:02;0.30;;;0.30;;
15106;SDS011;7654;45.308;-75.096;2022-10-16T15:10:35;0.30;;;0.30;;
15106;SDS011;7654;45.308;-75.096;2022-10-16T15:13:11;0.33;;;0.33;;
15106;SDS011;7654;45.308;-75.096;2022-10-16T15:15:44;0.30;;;0.30;;
15106;SDS011;7654;45.308;-75.096;2022-10-16T15:18:16;0.30;;;0.30;;
15106;SDS011;7654;45.308;-75.096;2022-10-16T15:20:48;0.40;;;0.40;;
15106;SDS011;7654;45.308;-75.096;2022-10-16T15:23:20;0.33;;;0.33;;
15106;SDS011;7654;45.308;-75.096;2022-10-16T15:25:51;0.40;;;0.40;;
15106;SDS011;7654;45.308;-75.096;2022-10-16T15:28:23;0.30;;;0.30;;
15106;SDS011;7654;45.308;-75.096;2022-10-16T15:30:56;0.30;;;0.30;;
15106;SDS011;7654;45.308;-75.096;2022-10-16T15:33:27;0.30;;;0.30;;
15106;SDS011;7654;45.308;-75.096;2022-10-16T15:36:05;0.30;;;0.30;;
15106;SDS011;7654;45.308;-75.096;2022-10-16T15:38:37;0.40;;;0.40;;
15106;SDS011;7654;45.308;-75.096;2022-10-16T15:41:07;0.40;;;0.40;;